ěÝzenÝ letovÚho provozu ╚eskÚ republiky
Letiste: LKLN Aktualizace: 21.10.2021 12:20:28  UTC
 METAR LKLN 21.10. 12:30 ...
METAR LKLN 211230Z AUTO 27016G34KT 230V310 9999 -RA BKN046 11/06 Q1008=